Flight Track Log - Related Links

Times and Time Zones

All times are in EDT time to prevent confusion due to time zone crossing. See the N3640J flight status page for this flight to view local times or setup timezone preferences in your user account.

Time Position Orientation Groundspeed Altitude Reporting Facility
EDT Latitude Longitude Course Direction KTS MPH feet Rate Location/Type
Thu 02:52:12 PM 28.1833 -82.3833 345° North 142 163 2,200  Level Tampa TRACON
Thu 02:53:12 PM 28.2167 -82.3833 360° North 134 154 3,200 900 Climbing Tampa TRACON
Thu 02:54:12 PM 28.2500 -82.4000 336° Northwest 128 147 4,000 417 Climbing Tampa TRACON
Thu 02:55:07 PM 28.3000 -82.4167 344° North 153 176 4,000 53 Level Tampa TRACON
Thu 02:56:06 PM 28.3333 -82.4333 336° Northwest 152 175 4,100 613 Climbing Tampa TRACON
Thu 02:57:00 PM 28.2255 -82.0908 345° North  Level Estimated
Thu 02:57:24 PM 28.3667 -82.4333 360° North 117 135 5,400  Level Tampa TRACON
Thu 02:58:06 PM 28.4000 -82.4500 336° Northwest 146 168 5,500 606 Climbing Tampa TRACON
Thu 02:59:13 PM 28.4500 -82.4500 360° North 136 157 6,500 472 Climbing Tampa TRACON
Thu 03:00:13 PM 28.4833 -82.4667 336° Northwest 145 167 6,500  Level Tampa TRACON
Thu 03:01:13 PM 28.5167 -82.4833 336° Northwest 150 173 6,500  Level Tampa TRACON
Thu 03:02:13 PM 28.5667 -82.4833 360° North 148 170 6,500 -47 Level Tampa TRACON
Thu 03:03:22 PM 28.6064 -82.5000 340° North 147 169 6,400 -48 Descending Jacksonville Center
Thu 03:04:17 PM 28.6461 -82.5094 348° North 150 173 6,400  Level Jacksonville Center
Thu 03:05:17 PM 28.6836 -82.5211 345° North 148 170 6,400  Level Jacksonville Center
Thu 03:06:18 PM 28.7253 -82.5328 346° North 150 173 6,400  Level Jacksonville Center
Thu 03:07:25 PM 28.7733 -82.5444 348° North 149 171 6,400  Level Jacksonville Center
Thu 03:08:26 PM 28.8131 -82.5536 349° North 148 170 6,400  Level Jacksonville Center
Thu 03:09:20 PM 28.8508 -82.5631 348° North 152 175 6,400  Level Jacksonville Center
Thu 03:10:21 PM 28.8944 -82.5772 344° North 155 178 6,400  Level Jacksonville Center
Thu 03:11:16 PM 28.9322 -82.5867 348° North 157 181 6,400  Level Jacksonville Center
Thu 03:12:23 PM 28.9781 -82.5983 347° North 156 180 6,400  Level Jacksonville Center
Thu 03:13:30 PM 29.0261 -82.6075 351° North 155 178 6,400  Level Jacksonville Center
Thu 03:14:31 PM 29.0700 -82.6194 347° North 154 177 6,400  Level Jacksonville Center
Thu 03:15:32 PM 29.1117 -82.6311 346° North 154 177 6,400  Level Jacksonville Center
Thu 03:16:32 PM 29.1536 -82.6428 346° North 156 180 6,400  Level Jacksonville Center
Thu 03:17:33 PM 29.1953 -82.6522 349° North 154 177 6,400  Level Jacksonville Center
Thu 03:18:41 PM 29.2414 -82.6736 338° Northwest 156 180 6,400  Level Jacksonville Center
Thu 03:19:47 PM 29.2831 -82.6975 333° Northwest 151 174 6,400  Level Jacksonville Center
Thu 03:20:42 PM 29.3206 -82.7139 339° North 151 174 6,400  Level Jacksonville Center
Thu 03:21:22 PM 29.3478 -82.7211 347° North 156 180 6,400  Level Jacksonville Center
Thu 03:22:22 PM 29.3875 -82.7306 348° North 157 181 6,400 50 Level Jacksonville Center
Thu 03:23:22 PM 29.4314 -82.7400 349° North 157 181 6,500 50 Climbing Jacksonville Center
Thu 03:24:22 PM 29.4731 -82.7519 346° North 157 181 6,500 -67 Level Jacksonville Center
Thu 03:24:52 PM 29.4939 -82.7589 344° North 155 178 6,400  Descending Jacksonville Center
Thu 03:25:22 PM 29.5147 -82.7614 354° North 157 181 6,500  Climbing Jacksonville Center
Thu 03:25:53 PM 29.5358 -82.7683 344° North 154 177 6,400 -50 Descending Jacksonville Center
Thu 03:27:22 PM 29.5983 -82.7828 349° North 158 182 6,400  Level Jacksonville Center
Thu 03:28:22 PM 29.6403 -82.7922 349° North 158 182 6,400  Level Jacksonville Center
Thu 03:29:22 PM 29.6839 -82.7731 21° North 158 182 6,400  Level Jacksonville Center
Thu 03:30:22 PM 29.7236 -82.7753 357° North 158 182 6,400 50 Level Jacksonville Center
Thu 03:31:22 PM 29.7653 -82.7872 346° North 153 176 6,500 50 Climbing Jacksonville Center
Thu 03:32:22 PM 29.8072 -82.7992 346° North 153 176 6,500  Level Jacksonville Center
Thu 03:33:22 PM 29.8511 -82.8089 349° North 153 176 6,500  Level Jacksonville Center
Thu 03:34:22 PM 29.8886 -82.8206 345° North 153 176 6,500  Level Jacksonville Center
Thu 03:35:22 PM 29.9303 -82.8303 349° North 153 176 6,500  Level Jacksonville Center
Thu 03:36:22 PM 29.9722 -82.8397 349° North 153 176 6,500  Level Jacksonville Center
Thu 03:37:22 PM 30.0139 -82.8517 346° North 148 170 6,500 -50 Level Jacksonville Center
Thu 03:38:22 PM 30.0556 -82.8639 346° North 148 170 6,400  Descending Jacksonville Center
Thu 03:39:22 PM 30.0975 -82.8758 346° North 148 170 6,500 50 Climbing Jacksonville Center
Thu 03:40:22 PM 30.1392 -82.8853 349° North 148 170 6,500  Level Jacksonville Center
Thu 03:41:22 PM 30.1789 -82.8972 345° North 148 170 6,500  Level Jacksonville Center
Thu 03:42:22 PM 30.2206 -82.9069 349° North 148 170 6,500  Level Jacksonville Center
Thu 03:43:22 PM 30.2622 -82.9192 346° North 148 170 6,500  Level Jacksonville Center
Thu 03:44:22 PM 30.3042 -82.9311 346° North 148 170 6,500  Level Jacksonville Center
Thu 03:45:22 PM 30.3458 -82.9408 349° North 148 170 6,500 600 Level Jacksonville Center
Thu 03:46:22 PM 30.3772 -82.9553 338° Northwest 142 163 7,700 900 Climbing Jacksonville Center
Thu 03:47:22 PM 30.3981 -82.9719 325° Northwest 115 132 8,300 350 Climbing Jacksonville Center
Thu 03:48:22 PM 30.4294 -83.0033 319° Northwest 114 131 8,400 100 Climbing Jacksonville Center
Thu 03:49:22 PM 30.4628 -83.0347 321° Northwest 140 161 8,500 50 Climbing Jacksonville Center
Thu 03:50:22 PM 30.5025 -83.0419 351° North 140 161 8,500 -50 Level Jacksonville Center
Thu 03:51:22 PM 30.5442 -83.0542 346° North 145 167 8,400  Descending Jacksonville Center
Thu 03:52:22 PM 30.5881 -83.0639 349° North 151 174 8,500  Climbing Jacksonville Center
Thu 03:53:22 PM 30.6256 -83.0808 339° North 151 174 8,400 -67 Descending Jacksonville Center
Thu 03:53:52 PM 30.6483 -83.0978 327° Northwest 153 176 8,400  Level Jacksonville Center
Thu 03:54:22 PM 30.6653 -83.1050 340° North 151 174 8,400 67 Level Jacksonville Center
Thu 03:55:22 PM 30.7028 -83.1244 336° Northwest 151 174 8,500 41 Climbing Jacksonville Center
Thu 03:56:48 PM 30.7611 -83.1608 332° Northwest 155 178 8,500  Level Jacksonville Center
Thu 03:57:48 PM 30.8008 -83.1756 342° North 155 178 8,500 -50 Level Jacksonville Center
Thu 03:58:49 PM 30.8425 -83.1925 341° North 155 178 8,400  Descending Jacksonville Center
Thu 03:59:50 PM 30.8861 -83.2122 339° North 153 176 8,500 50 Climbing Jacksonville Center
Thu 04:00:50 PM 30.9258 -83.2292 340° North 154 177 8,500  Level Jacksonville Center
Thu 04:01:45 PM 30.9633 -83.2389 347° North 157 181 8,500  Level Jacksonville Center
Thu 04:02:51 PM 31.0114 -83.2464 352° North 154 177 8,500  Level Jacksonville Center
Thu 04:03:52 PM 31.0511 -83.2564 348° North 152 175 8,500  Level Jacksonville Center
Thu 04:04:53 PM 31.0969 -83.2661 350° North 155 178 8,500  Level Jacksonville Center
Thu 04:05:53 PM 31.1386 -83.2761 348° North 155 178 8,500  Level Jacksonville Center
Thu 04:06:54 PM 31.1806 -83.2883 346° North 156 180 8,500  Level Jacksonville Center
Thu 04:07:55 PM 31.2264 -83.2958 352° North 157 181 8,500  Level Jacksonville Center
Thu 04:08:55 PM 31.2681 -83.3033 351° North 155 178 8,500  Level Jacksonville Center
Thu 04:09:56 PM 31.3119 -83.3156 347° North 157 181 8,500  Level Jacksonville Center
Thu 04:10:56 PM 31.3514 -83.3281 345° North 156 180 8,500  Level Jacksonville Center
Thu 04:11:57 PM 31.3975 -83.3381 350° North 157 181 8,500 -49 Level Jacksonville Center
Thu 04:12:58 PM 31.4392 -83.3456 351° North 157 181 8,400  Descending Jacksonville Center
Thu 04:14:04 PM 31.4892 -83.3581 348° North 159 183 8,500  Climbing Jacksonville Center
Thu 04:15:11 PM 31.5350 -83.3703 347° North 158 182 8,400  Descending Jacksonville Center
Thu 04:16:06 PM 31.5728 -83.3778 350° North 156 180 8,500 52 Climbing Jacksonville Center
Thu 04:17:06 PM 31.6186 -83.3903 347° North 156 180 8,500  Level Jacksonville Center
Thu 04:18:07 PM 31.6603 -83.4003 348° North 157 181 8,500  Level Jacksonville Center
Thu 04:19:10 PM 31.7019 -83.4053 354° North 165 190 8,500  Level Jacksonville Center
Thu 04:20:10 PM 31.7436 -83.4153 348° North 159 183 8,500  Level Jacksonville Center
Thu 04:21:10 PM 31.7875 -83.4253 349° North 159 183 8,500  Level Jacksonville Center
Thu 04:22:10 PM 31.8292 -83.4353 348° North 159 183 8,500  Level Jacksonville Center
Thu 04:23:10 PM 31.8708 -83.4481 345° North 159 183 8,500  Level Jacksonville Center
Thu 04:25:11 PM 31.9667 -83.4667 351° North 158 182 8,500  Level Atlanta TRACON
Thu 04:26:11 PM 32.0000 -83.4833 337° Northwest 157 181 8,500  Level Atlanta TRACON
Thu 04:27:11 PM 32.0500 -83.4833 360° North 154 177 8,500  Level Atlanta TRACON
Thu 04:28:11 PM 32.0833 -83.5000 337° Northwest 154 177 8,500  Level Atlanta TRACON
Thu 04:29:11 PM 32.1333 -83.5167 344° North 154 177 8,500  Level Atlanta TRACON
Thu 04:30:11 PM 32.1667 -83.5167 360° North 154 177 8,500  Level Atlanta TRACON
Thu 04:31:11 PM 32.2167 -83.5333 344° North 152 175 8,500  Level Atlanta TRACON
Thu 04:32:05 PM 32.2500 -83.5333 360° North 154 177 8,500  Level Atlanta TRACON
Thu 04:33:11 PM 32.3000 -83.5500 344° North 151 174 8,500  Level Atlanta TRACON
Thu 04:34:11 PM 32.3333 -83.5333 23° Northeast 156 180 8,500  Level Atlanta TRACON
Thu 04:35:05 PM 32.3833 -83.5500 344° North 157 181 8,500  Level Atlanta TRACON
Thu 04:36:05 PM 32.4167 -83.5500 360° North 158 182 8,500  Level Atlanta TRACON
Thu 04:37:05 PM 32.4667 -83.5667 344° North 160 184 8,500  Level Atlanta TRACON
Thu 04:38:11 PM 32.5167 -83.5667 360° North 161 185 8,500  Level Atlanta TRACON
Thu 04:39:11 PM 32.5500 -83.5833 337° Northwest 157 181 8,500  Level Atlanta TRACON
Thu 04:40:11 PM 32.6000 -83.5833 360° North 153 176 8,500  Level Atlanta TRACON
Thu 04:41:17 PM 32.6500 -83.5833 360° North 157 181 8,500  Level Atlanta TRACON
Thu 04:42:11 PM 32.6833 -83.5833 360° North 160 184 8,500  Level Atlanta TRACON
Thu 04:43:05 PM 32.7333 -83.5833 360° North 163 188 8,500  Level Atlanta TRACON
Thu 04:44:06 PM 32.7667 -83.5833 360° North 161 185 8,500  Level Atlanta TRACON
Thu 04:45:06 PM 32.8167 -83.6000 344° North 157 181 8,500  Level Atlanta TRACON
Thu 04:46:06 PM 32.8500 -83.6167 337° Northwest 156 180 8,500  Level Atlanta TRACON
Thu 04:47:06 PM 32.9000 -83.6167 360° North 156 180 8,500  Level Atlanta TRACON
Thu 04:48:06 PM 32.9333 -83.6333 337° Northwest 157 181 8,500  Level Atlanta TRACON
Thu 04:49:12 PM 32.9833 -83.6500 344° North 138 159 8,500  Level Atlanta TRACON
Thu 04:50:12 PM 33.0333 -83.6667 344° North 167 192 8,500  Level Atlanta TRACON
Thu 04:51:12 PM 33.0667 -83.6667 360° North 162 186 8,500 -53 Level Atlanta TRACON
Thu 04:52:06 PM 33.1167 -83.6833 344° North 157 181 8,400 -53 Descending Atlanta TRACON
Thu 04:53:06 PM 33.1500 -83.7000 337° Northwest 161 185 8,400  Level Atlanta TRACON
Thu 04:54:12 PM 33.2000 -83.7167 344° North 159 183 8,400 -350 Level Atlanta TRACON
Thu 04:55:06 PM 33.2333 -83.7333 337° Northwest 161 185 7,700 -1,650 Descending Atlanta TRACON
Thu 04:56:12 PM 33.3000 -83.7333 360° North 188 216 5,100 -2,300 Descending Atlanta TRACON
Thu 04:57:06 PM 33.3333 -83.7500 337° Northwest 184 212 3,100 -1,421 Descending Atlanta TRACON
Thu 04:58:06 PM 33.3833 -83.7667 344° North 163 188 2,400 -298 Descending Atlanta TRACON
Thu 04:59:07 PM 33.4167 -83.7833 337° Northwest 147 169 2,500 52 Climbing Atlanta TRACON
Thu 05:00:01 PM 33.4500 -83.8000 337° Northwest 147 169 2,500  Level Atlanta TRACON
Thu 05:01:01 PM 33.5000 -83.8000 360° North 151 174 2,500 -32 Level Atlanta TRACON
Thu 05:03:07 PM 33.5833 -83.8333 342° North 152 175 2,400 -32 Descending Atlanta TRACON
Thu 05:04:07 PM 33.6167 -83.8500 337° Northwest 159 183 2,400 50 Level Atlanta TRACON
Thu 05:05:07 PM 33.6667 -83.8500 360° North 156 180 2,500 50 Climbing Atlanta TRACON
Thu 05:06:07 PM 33.7000 -83.8667 337° Northwest 158 182 2,500 -50 Level Atlanta TRACON
Thu 05:07:07 PM 33.7500 -83.8833 345° North 157 181 2,400 -50 Descending Atlanta TRACON
Thu 05:08:07 PM 33.7833 -83.9000 337° Northwest 153 176 2,400  Level Atlanta TRACON
Thu 05:09:07 PM 33.8333 -83.9167 345° North 156 180 2,400  Level Atlanta TRACON
Thu 05:10:01 PM 33.8667 -83.9333 337° Northwest 126 145 2,400  Level Atlanta TRACON
Thu 05:11:07 PM 33.9000 -83.9500 337° Northwest 133 153 2,400 -95 Level Atlanta TRACON
Thu 05:12:07 PM 33.9167 -83.9833 301° West 116 133 2,200 -250 Descending Atlanta TRACON
Thu 05:13:07 PM 33.9500 -83.9833 360° North 83 96 1,900 -300 Descending Atlanta TRACON
Thu 05:15:00 PM 33.9667 -83.9500 North  Level FlightAware Approximate
Thu 05:22:00 PM 33.9781 -83.9624 North  Level Estimated
Thu 05:23:00 PM 33.9781 -83.9624 North  Level Estimated

Login

Don't have an account? Register now (free) for customized features, flight alerts, and more!